sensor_id;sensor_type;location;lat;lon;timestamp;temperature;humidity
18948;DHT22;9607;51.600;7.558;2022-11-20T00:00:16;-3.80;99.90
18948;DHT22;9607;51.600;7.558;2022-11-20T00:02:43;-3.80;99.90
18948;DHT22;9607;51.600;7.558;2022-11-20T00:05:10;-3.80;99.90
18948;DHT22;9607;51.600;7.558;2022-11-20T00:07:38;-3.70;99.90
18948;DHT22;9607;51.600;7.558;2022-11-20T00:10:07;-3.70;99.90
18948;DHT22;9607;51.600;7.558;2022-11-20T00:12:34;-3.70;99.90
18948;DHT22;9607;51.600;7.558;2022-11-20T00:15:03;-3.70;99.90
18948;DHT22;9607;51.600;7.558;2022-11-20T00:17:30;-3.70;99.90
18948;DHT22;9607;51.600;7.558;2022-11-20T00:19:57;-3.70;99.90
18948;DHT22;9607;51.600;7.558;2022-11-20T00:22:24;-3.80;99.90
18948;DHT22;9607;51.600;7.558;2022-11-20T00:24:51;-3.80;99.90
18948;DHT22;9607;51.600;7.558;2022-11-20T00:27:19;-3.80;99.90
18948;DHT22;9607;51.600;7.558;2022-11-20T00:29:46;-3.90;99.90
18948;DHT22;9607;51.600;7.558;2022-11-20T00:32:13;-3.90;99.90
18948;DHT22;9607;51.600;7.558;2022-11-20T00:34:39;-3.90;99.90
18948;DHT22;9607;51.600;7.558;2022-11-20T00:37:06;-3.90;99.90
18948;DHT22;9607;51.600;7.558;2022-11-20T00:39:33;-3.90;99.90
18948;DHT22;9607;51.600;7.558;2022-11-20T00:42:00;-3.90;99.90
18948;DHT22;9607;51.600;7.558;2022-11-20T00:44:28;-3.90;99.90
18948;DHT22;9607;51.600;7.558;2022-11-20T00:46:55;-3.90;99.90
18948;DHT22;9607;51.600;7.558;2022-11-20T00:49:22;-3.90;99.90
18948;DHT22;9607;51.600;7.558;2022-11-20T00:51:49;-4.00;99.90
18948;DHT22;9607;51.600;7.558;2022-11-20T00:54:16;-4.00;99.90
18948;DHT22;9607;51.600;7.558;2022-11-20T00:56:43;-4.00;99.90
18948;DHT22;9607;51.600;7.558;2022-11-20T00:59:11;-4.00;99.90
18948;DHT22;9607;51.600;7.558;2022-11-20T01:01:39;-4.00;99.90
18948;DHT22;9607;51.600;7.558;2022-11-20T01:04:06;-3.90;99.90
18948;DHT22;9607;51.600;7.558;2022-11-20T01:06:34;-3.80;99.90
18948;DHT22;9607;51.600;7.558;2022-11-20T01:09:04;-3.70;99.90
18948;DHT22;9607;51.600;7.558;2022-11-20T01:11:33;-3.60;99.90
18948;DHT22;9607;51.600;7.558;2022-11-20T01:14:02;-3.50;99.90
18948;DHT22;9607;51.600;7.558;2022-11-20T01:16:31;-3.30;99.90
18948;DHT22;9607;51.600;7.558;2022-11-20T01:19:03;-3.20;99.90
18948;DHT22;9607;51.600;7.558;2022-11-20T01:21:31;-3.00;99.90
18948;DHT22;9607;51.600;7.558;2022-11-20T01:23:58;-2.90;99.90
18948;DHT22;9607;51.600;7.558;2022-11-20T01:26:27;-2.80;99.90
18948;DHT22;9607;51.600;7.558;2022-11-20T01:28:55;-2.70;99.90
18948;DHT22;9607;51.600;7.558;2022-11-20T01:31:24;-2.60;99.90
18948;DHT22;9607;51.600;7.558;2022-11-20T01:33:53;-2.50;99.90
18948;DHT22;9607;51.600;7.558;2022-11-20T01:36:23;-2.40;99.90
18948;DHT22;9607;51.600;7.558;2022-11-20T01:38:52;-2.30;99.90
18948;DHT22;9607;51.600;7.558;2022-11-20T01:41:19;-2.30;99.90
18948;DHT22;9607;51.600;7.558;2022-11-20T01:44:01;-2.20;99.90
18948;DHT22;9607;51.600;7.558;2022-11-20T01:46:28;-2.10;99.90
18948;DHT22;9607;51.600;7.558;2022-11-20T01:48:58;-2.00;99.90
18948;DHT22;9607;51.600;7.558;2022-11-20T01:51:34;-2.00;99.90
18948;DHT22;9607;51.600;7.558;2022-11-20T01:54:04;-1.90;99.90
18948;DHT22;9607;51.600;7.558;2022-11-20T01:56:36;-1.80;99.90
18948;DHT22;9607;51.600;7.558;2022-11-20T01:59:05;-1.80;99.90
18948;DHT22;9607;51.600;7.558;2022-11-20T02:01:33;-1.70;99.90
18948;DHT22;9607;51.600;7.558;2022-11-20T02:04:04;-1.60;99.90
18948;DHT22;9607;51.600;7.558;2022-11-20T02:06:35;-1.60;99.90
18948;DHT22;9607;51.600;7.558;2022-11-20T02:09:05;-1.50;99.90
18948;DHT22;9607;51.600;7.558;2022-11-20T02:11:32;-1.50;99.90
18948;DHT22;9607;51.600;7.558;2022-11-20T02:13:59;-1.40;99.90
18948;DHT22;9607;51.600;7.558;2022-11-20T02:16:28;-1.40;99.90
18948;DHT22;9607;51.600;7.558;2022-11-20T02:18:59;-1.40;99.90
18948;DHT22;9607;51.600;7.558;2022-11-20T02:21:34;-1.30;99.90
18948;DHT22;9607;51.600;7.558;2022-11-20T02:24:06;-1.30;99.90
18948;DHT22;9607;51.600;7.558;2022-11-20T02:26:41;-1.30;99.90
18948;DHT22;9607;51.600;7.558;2022-11-20T02:29:09;-1.20;99.90
18948;DHT22;9607;51.600;7.558;2022-11-20T02:31:38;-1.20;99.90
18948;DHT22;9607;51.600;7.558;2022-11-20T02:34:06;-1.20;99.90
18948;DHT22;9607;51.600;7.558;2022-11-20T02:36:38;-1.20;99.90
18948;DHT22;9607;51.600;7.558;2022-11-20T02:39:07;-1.20;99.90
18948;DHT22;9607;51.600;7.558;2022-11-20T02:41:37;-1.10;99.90
18948;DHT22;9607;51.600;7.558;2022-11-20T02:44:05;-1.10;99.90
18948;DHT22;9607;51.600;7.558;2022-11-20T02:46:32;-1.00;99.90
18948;DHT22;9607;51.600;7.558;2022-11-20T02:49:01;-1.00;99.90
18948;DHT22;9607;51.600;7.558;2022-11-20T02:51:28;-0.90;99.90
18948;DHT22;9607;51.600;7.558;2022-11-20T02:53:55;-0.90;99.90
18948;DHT22;9607;51.600;7.558;2022-11-20T02:56:23;-0.80;99.90
18948;DHT22;9607;51.600;7.558;2022-11-20T02:58:51;-0.70;99.90
18948;DHT22;9607;51.600;7.558;2022-11-20T03:01:18;-0.70;99.90
18948;DHT22;9607;51.600;7.558;2022-11-20T03:03:45;-0.70;99.90
18948;DHT22;9607;51.600;7.558;2022-11-20T03:06:14;-0.60;99.90
18948;DHT22;9607;51.600;7.558;2022-11-20T03:08:41;-0.60;99.90
18948;DHT22;9607;51.600;7.558;2022-11-20T03:11:08;-0.60;99.90
18948;DHT22;9607;51.600;7.558;2022-11-20T03:13:36;-0.50;99.90
18948;DHT22;9607;51.600;7.558;2022-11-20T03:16:08;-0.50;99.90
18948;DHT22;9607;51.600;7.558;2022-11-20T03:18:35;-0.50;99.90
18948;DHT22;9607;51.600;7.558;2022-11-20T03:21:03;-0.50;99.90
18948;DHT22;9607;51.600;7.558;2022-11-20T03:23:31;-0.50;99.90
18948;DHT22;9607;51.600;7.558;2022-11-20T03:26:08;-0.50;99.90
18948;DHT22;9607;51.600;7.558;2022-11-20T03:28:36;-0.50;99.90
18948;DHT22;9607;51.600;7.558;2022-11-20T03:31:11;-0.50;99.90
18948;DHT22;9607;51.600;7.558;2022-11-20T03:33:38;-0.50;99.90
18948;DHT22;9607;51.600;7.558;2022-11-20T03:36:07;-0.40;99.90
18948;DHT22;9607;51.600;7.558;2022-11-20T03:38:34;-0.40;99.90
18948;DHT22;9607;51.600;7.558;2022-11-20T03:41:03;-0.30;99.90
18948;DHT22;9607;51.600;7.558;2022-11-20T03:43:31;-0.30;99.90
18948;DHT22;9607;51.600;7.558;2022-11-20T03:46:00;-0.30;99.90
18948;DHT22;9607;51.600;7.558;2022-11-20T03:48:27;-0.30;99.90
18948;DHT22;9607;51.600;7.558;2022-11-20T03:51:06;-0.30;99.90
18948;DHT22;9607;51.600;7.558;2022-11-20T03:53:33;-0.30;99.90
18948;DHT22;9607;51.600;7.558;2022-11-20T03:56:00;-0.30;99.90
18948;DHT22;9607;51.600;7.558;2022-11-20T03:58:29;-0.30;99.90
18948;DHT22;9607;51.600;7.558;2022-11-20T04:00:55;-0.30;99.90
18948;DHT22;9607;51.600;7.558;2022-11-20T04:03:24;-0.20;99.90
18948;DHT22;9607;51.600;7.558;2022-11-20T04:05:51;-0.20;99.90
18948;DHT22;9607;51.600;7.558;2022-11-20T04:08:18;-0.20;99.90
18948;DHT22;9607;51.600;7.558;2022-11-20T04:10:45;-0.20;99.90
18948;DHT22;9607;51.600;7.558;2022-11-20T04:13:12;-0.20;99.90
18948;DHT22;9607;51.600;7.558;2022-11-20T04:15:39;-0.10;99.90
18948;DHT22;9607;51.600;7.558;2022-11-20T04:18:05;0.00;99.90
18948;DHT22;9607;51.600;7.558;2022-11-20T04:20:34;0.00;99.90
18948;DHT22;9607;51.600;7.558;2022-11-20T04:23:01;0.00;99.90
18948;DHT22;9607;51.600;7.558;2022-11-20T04:25:28;0.10;99.90
18948;DHT22;9607;51.600;7.558;2022-11-20T04:27:55;0.10;99.90
18948;DHT22;9607;51.600;7.558;2022-11-20T04:30:22;0.10;99.90
18948;DHT22;9607;51.600;7.558;2022-11-20T04:32:49;0.10;99.90
18948;DHT22;9607;51.600;7.558;2022-11-20T04:35:16;0.10;99.90
18948;DHT22;9607;51.600;7.558;2022-11-20T04:37:44;0.00;99.90
18948;DHT22;9607;51.600;7.558;2022-11-20T04:40:12;0.00;99.90
18948;DHT22;9607;51.600;7.558;2022-11-20T04:42:38;-0.10;99.90
18948;DHT22;9607;51.600;7.558;2022-11-20T04:45:06;-0.20;99.90
18948;DHT22;9607;51.600;7.558;2022-11-20T04:47:33;-0.40;99.90
18948;DHT22;9607;51.600;7.558;2022-11-20T04:50:00;-0.60;99.90
18948;DHT22;9607;51.600;7.558;2022-11-20T04:52:27;-0.70;99.90
18948;DHT22;9607;51.600;7.558;2022-11-20T04:54:55;-0.80;99.90
18948;DHT22;9607;51.600;7.558;2022-11-20T04:57:22;-1.00;99.90
18948;DHT22;9607;51.600;7.558;2022-11-20T04:59:48;-1.10;99.90
18948;DHT22;9607;51.600;7.558;2022-11-20T05:02:15;-1.10;99.90
18948;DHT22;9607;51.600;7.558;2022-11-20T05:04:42;-1.30;99.90
18948;DHT22;9607;51.600;7.558;2022-11-20T05:07:09;-1.40;99.90
18948;DHT22;9607;51.600;7.558;2022-11-20T05:09:36;-1.50;99.90
18948;DHT22;9607;51.600;7.558;2022-11-20T05:12:06;-1.60;99.90
18948;DHT22;9607;51.600;7.558;2022-11-20T05:14:33;-1.70;99.90
18948;DHT22;9607;51.600;7.558;2022-11-20T05:17:00;-1.70;99.90
18948;DHT22;9607;51.600;7.558;2022-11-20T05:19:27;-1.80;99.90
18948;DHT22;9607;51.600;7.558;2022-11-20T05:21:54;-1.90;99.90
18948;DHT22;9607;51.600;7.558;2022-11-20T05:24:22;-1.90;99.90
18948;DHT22;9607;51.600;7.558;2022-11-20T05:26:49;-2.00;99.90
18948;DHT22;9607;51.600;7.558;2022-11-20T05:29:17;-2.10;99.90
18948;DHT22;9607;51.600;7.558;2022-11-20T05:31:44;-2.10;99.90
18948;DHT22;9607;51.600;7.558;2022-11-20T05:34:11;-2.10;99.90
18948;DHT22;9607;51.600;7.558;2022-11-20T05:36:38;-2.20;99.90
18948;DHT22;9607;51.600;7.558;2022-11-20T05:39:05;-2.20;99.90
18948;DHT22;9607;51.600;7.558;2022-11-20T05:41:33;-2.30;99.90
18948;DHT22;9607;51.600;7.558;2022-11-20T05:44:00;-2.30;99.90
18948;DHT22;9607;51.600;7.558;2022-11-20T05:46:28;-2.30;99.90
18948;DHT22;9607;51.600;7.558;2022-11-20T05:48:57;-2.30;99.90
18948;DHT22;9607;51.600;7.558;2022-11-20T05:51:27;-2.30;99.90
18948;DHT22;9607;51.600;7.558;2022-11-20T05:53:56;-2.40;99.90
18948;DHT22;9607;51.600;7.558;2022-11-20T05:56:23;-2.40;99.90
18948;DHT22;9607;51.600;7.558;2022-11-20T05:58:50;-2.40;99.90
18948;DHT22;9607;51.600;7.558;2022-11-20T06:01:18;-2.40;99.90
18948;DHT22;9607;51.600;7.558;2022-11-20T06:03:47;-2.30;99.90
18948;DHT22;9607;51.600;7.558;2022-11-20T06:06:16;-2.30;99.90
18948;DHT22;9607;51.600;7.558;2022-11-20T06:08:44;-2.20;99.90
18948;DHT22;9607;51.600;7.558;2022-11-20T06:11:12;-2.20;99.90
18948;DHT22;9607;51.600;7.558;2022-11-20T06:13:41;-2.20;99.90
18948;DHT22;9607;51.600;7.558;2022-11-20T06:16:08;-2.20;99.90
18948;DHT22;9607;51.600;7.558;2022-11-20T06:18:35;-2.30;99.90
18948;DHT22;9607;51.600;7.558;2022-11-20T06:21:05;-2.30;99.90
18948;DHT22;9607;51.600;7.558;2022-11-20T06:23:33;-2.30;99.90
18948;DHT22;9607;51.600;7.558;2022-11-20T06:26:02;-2.30;99.90
18948;DHT22;9607;51.600;7.558;2022-11-20T06:28:30;-2.30;99.90
18948;DHT22;9607;51.600;7.558;2022-11-20T06:30:57;-2.30;99.90
18948;DHT22;9607;51.600;7.558;2022-11-20T06:33:23;-2.20;99.90
18948;DHT22;9607;51.600;7.558;2022-11-20T06:35:51;-2.10;99.90
18948;DHT22;9607;51.600;7.558;2022-11-20T06:38:19;-2.00;99.90
18948;DHT22;9607;51.600;7.558;2022-11-20T06:40:46;-1.90;99.90
18948;DHT22;9607;51.600;7.558;2022-11-20T06:43:13;-1.90;99.90
18948;DHT22;9607;51.600;7.558;2022-11-20T06:45:40;-1.80;99.90
18948;DHT22;9607;51.600;7.558;2022-11-20T06:48:08;-1.70;99.90
18948;DHT22;9607;51.600;7.558;2022-11-20T06:50:36;-1.60;99.90
18948;DHT22;9607;51.600;7.558;2022-11-20T06:53:04;-1.60;99.90
18948;DHT22;9607;51.600;7.558;2022-11-20T06:55:32;-1.50;99.90
18948;DHT22;9607;51.600;7.558;2022-11-20T06:57:59;-1.40;99.90
18948;DHT22;9607;51.600;7.558;2022-11-20T07:00:26;-1.40;99.90
18948;DHT22;9607;51.600;7.558;2022-11-20T07:02:53;-1.40;99.90
18948;DHT22;9607;51.600;7.558;2022-11-20T07:05:20;-1.50;99.90
18948;DHT22;9607;51.600;7.558;2022-11-20T07:07:47;-1.50;99.90
18948;DHT22;9607;51.600;7.558;2022-11-20T07:10:14;-1.50;99.90
18948;DHT22;9607;51.600;7.558;2022-11-20T07:12:48;-1.50;99.90
18948;DHT22;9607;51.600;7.558;2022-11-20T07:15:15;-1.50;99.90
18948;DHT22;9607;51.600;7.558;2022-11-20T07:17:42;-1.60;99.90
18948;DHT22;9607;51.600;7.558;2022-11-20T07:20:09;-1.60;99.90
18948;DHT22;9607;51.600;7.558;2022-11-20T07:22:37;-1.70;99.90
18948;DHT22;9607;51.600;7.558;2022-11-20T07:25:05;-1.80;99.90
18948;DHT22;9607;51.600;7.558;2022-11-20T07:27:32;-1.90;99.90
18948;DHT22;9607;51.600;7.558;2022-11-20T07:30:00;-1.90;99.90
18948;DHT22;9607;51.600;7.558;2022-11-20T07:32:27;-2.00;99.90
18948;DHT22;9607;51.600;7.558;2022-11-20T07:34:54;-2.00;99.90
18948;DHT22;9607;51.600;7.558;2022-11-20T07:37:21;-2.00;99.90
18948;DHT22;9607;51.600;7.558;2022-11-20T07:39:48;-2.10;99.90
18948;DHT22;9607;51.600;7.558;2022-11-20T07:42:15;-2.10;99.90
18948;DHT22;9607;51.600;7.558;2022-11-20T07:44:41;-2.00;99.90
18948;DHT22;9607;51.600;7.558;2022-11-20T07:47:09;-2.00;99.90
18948;DHT22;9607;51.600;7.558;2022-11-20T07:49:36;-2.00;99.90
18948;DHT22;9607;51.600;7.558;2022-11-20T07:52:03;-2.00;99.90
18948;DHT22;9607;51.600;7.558;2022-11-20T07:54:30;-2.00;99.90
18948;DHT22;9607;51.600;7.558;2022-11-20T07:56:57;-2.00;99.90
18948;DHT22;9607;51.600;7.558;2022-11-20T07:59:24;-1.90;99.90
18948;DHT22;9607;51.600;7.558;2022-11-20T08:01:51;-1.90;99.90
18948;DHT22;9607;51.600;7.558;2022-11-20T08:04:19;-1.80;99.90
18948;DHT22;9607;51.600;7.558;2022-11-20T08:06:46;-1.80;99.90
18948;DHT22;9607;51.600;7.558;2022-11-20T08:09:13;-1.70;99.90
18948;DHT22;9607;51.600;7.558;2022-11-20T08:11:39;-1.70;99.90
18948;DHT22;9607;51.600;7.558;2022-11-20T08:14:24;-1.60;99.90
18948;DHT22;9607;51.600;7.558;2022-11-20T08:16:52;-1.60;99.90
18948;DHT22;9607;51.600;7.558;2022-11-20T08:19:21;-1.50;99.90
18948;DHT22;9607;51.600;7.558;2022-11-20T08:21:48;-1.40;99.90
18948;DHT22;9607;51.600;7.558;2022-11-20T08:24:15;-1.40;99.90
18948;DHT22;9607;51.600;7.558;2022-11-20T08:26:42;-1.30;99.90
18948;DHT22;9607;51.600;7.558;2022-11-20T08:29:09;-1.20;99.90
18948;DHT22;9607;51.600;7.558;2022-11-20T08:31:36;-1.10;99.90
18948;DHT22;9607;51.600;7.558;2022-11-20T08:34:02;-1.10;99.90
18948;DHT22;9607;51.600;7.558;2022-11-20T08:36:33;-1.00;99.90
18948;DHT22;9607;51.600;7.558;2022-11-20T08:39:03;-1.00;99.90
18948;DHT22;9607;51.600;7.558;2022-11-20T08:41:30;-0.90;99.90
18948;DHT22;9607;51.600;7.558;2022-11-20T08:43:59;-0.80;99.90
18948;DHT22;9607;51.600;7.558;2022-11-20T08:46:30;-0.80;99.90
18948;DHT22;9607;51.600;7.558;2022-11-20T08:48:58;-0.80;99.90
18948;DHT22;9607;51.600;7.558;2022-11-20T08:51:25;-0.70;99.90
18948;DHT22;9607;51.600;7.558;2022-11-20T08:53:53;-0.70;99.90
18948;DHT22;9607;51.600;7.558;2022-11-20T08:56:20;-0.60;99.90
18948;DHT22;9607;51.600;7.558;2022-11-20T08:58:47;-0.60;99.90
18948;DHT22;9607;51.600;7.558;2022-11-20T09:01:14;-0.50;99.90
18948;DHT22;9607;51.600;7.558;2022-11-20T09:03:41;-0.50;99.90
18948;DHT22;9607;51.600;7.558;2022-11-20T09:06:08;-0.40;99.90
18948;DHT22;9607;51.600;7.558;2022-11-20T09:08:35;-0.40;99.90
18948;DHT22;9607;51.600;7.558;2022-11-20T09:11:04;-0.30;99.90
18948;DHT22;9607;51.600;7.558;2022-11-20T09:13:32;-0.20;99.90
18948;DHT22;9607;51.600;7.558;2022-11-20T09:16:00;-0.20;99.90
18948;DHT22;9607;51.600;7.558;2022-11-20T09:18:28;-0.10;99.90
18948;DHT22;9607;51.600;7.558;2022-11-20T09:20:57;0.00;99.90
18948;DHT22;9607;51.600;7.558;2022-11-20T09:23:25;0.10;99.90
18948;DHT22;9607;51.600;7.558;2022-11-20T09:25:52;0.20;99.90
18948;DHT22;9607;51.600;7.558;2022-11-20T09:28:22;0.20;99.90
18948;DHT22;9607;51.600;7.558;2022-11-20T09:30:49;0.30;99.90
18948;DHT22;9607;51.600;7.558;2022-11-20T09:33:16;0.40;99.90
18948;DHT22;9607;51.600;7.558;2022-11-20T09:35:43;0.60;99.90
18948;DHT22;9607;51.600;7.558;2022-11-20T09:38:10;0.60;99.90
18948;DHT22;9607;51.600;7.558;2022-11-20T09:40:43;0.70;99.90
18948;DHT22;9607;51.600;7.558;2022-11-20T09:43:13;0.90;99.90
18948;DHT22;9607;51.600;7.558;2022-11-20T09:45:54;1.00;99.90
18948;DHT22;9607;51.600;7.558;2022-11-20T09:48:36;1.10;99.90
18948;DHT22;9607;51.600;7.558;2022-11-20T09:51:16;1.20;99.90
18948;DHT22;9607;51.600;7.558;2022-11-20T09:54:01;1.30;99.90
18948;DHT22;9607;51.600;7.558;2022-11-20T09:56:30;1.40;99.90
18948;DHT22;9607;51.600;7.558;2022-11-20T09:59:02;1.50;99.90
18948;DHT22;9607;51.600;7.558;2022-11-20T10:01:35;1.60;99.90
18948;DHT22;9607;51.600;7.558;2022-11-20T10:04:06;1.80;99.90
18948;DHT22;9607;51.600;7.558;2022-11-20T10:06:41;1.80;99.90
18948;DHT22;9607;51.600;7.558;2022-11-20T10:09:18;1.90;99.90
18948;DHT22;9607;51.600;7.558;2022-11-20T10:11:57;2.00;99.90
18948;DHT22;9607;51.600;7.558;2022-11-20T10:14:33;2.10;99.90
18948;DHT22;9607;51.600;7.558;2022-11-20T10:17:13;2.20;99.90
18948;DHT22;9607;51.600;7.558;2022-11-20T10:19:55;2.30;99.90
18948;DHT22;9607;51.600;7.558;2022-11-20T10:22:40;2.30;99.90
18948;DHT22;9607;51.600;7.558;2022-11-20T10:25:15;2.40;99.90
18948;DHT22;9607;51.600;7.558;2022-11-20T10:28:00;2.50;99.90
18948;DHT22;9607;51.600;7.558;2022-11-20T10:30:35;2.50;99.90
18948;DHT22;9607;51.600;7.558;2022-11-20T10:33:12;2.60;99.90
18948;DHT22;9607;51.600;7.558;2022-11-20T10:35:42;2.60;99.90
18948;DHT22;9607;51.600;7.558;2022-11-20T10:38:15;2.70;99.90
18948;DHT22;9607;51.600;7.558;2022-11-20T10:40:45;2.80;99.90
18948;DHT22;9607;51.600;7.558;2022-11-20T10:43:15;3.00;99.90
18948;DHT22;9607;51.600;7.558;2022-11-20T10:45:48;3.20;99.90
18948;DHT22;9607;51.600;7.558;2022-11-20T10:48:21;3.40;99.90
18948;DHT22;9607;51.600;7.558;2022-11-20T10:51:03;3.50;99.90
18948;DHT22;9607;51.600;7.558;2022-11-20T10:53:50;3.70;99.90
18948;DHT22;9607;51.600;7.558;2022-11-20T10:56:21;3.90;99.90
18948;DHT22;9607;51.600;7.558;2022-11-20T10:59:03;4.10;99.90
18948;DHT22;9607;51.600;7.558;2022-11-20T11:01:39;4.20;99.90
18948;DHT22;9607;51.600;7.558;2022-11-20T11:04:32;4.40;99.90
18948;DHT22;9607;51.600;7.558;2022-11-20T11:07:07;4.60;99.90
18948;DHT22;9607;51.600;7.558;2022-11-20T11:09:39;5.00;99.90
18948;DHT22;9607;51.600;7.558;2022-11-20T11:12:10;5.30;99.90
18948;DHT22;9607;51.600;7.558;2022-11-20T11:14:47;5.60;99.90
18948;DHT22;9607;51.600;7.558;2022-11-20T11:17:27;5.80;99.90
18948;DHT22;9607;51.600;7.558;2022-11-20T11:20:01;5.90;99.90
18948;DHT22;9607;51.600;7.558;2022-11-20T11:22:29;6.00;99.90
18948;DHT22;9607;51.600;7.558;2022-11-20T11:24:57;6.10;99.90
18948;DHT22;9607;51.600;7.558;2022-11-20T11:27:25;6.10;99.90
18948;DHT22;9607;51.600;7.558;2022-11-20T11:30:11;6.10;99.90
18948;DHT22;9607;51.600;7.558;2022-11-20T11:32:39;6.10;99.90
18948;DHT22;9607;51.600;7.558;2022-11-20T11:35:21;6.10;99.90
18948;DHT22;9607;51.600;7.558;2022-11-20T11:37:50;6.10;99.90
18948;DHT22;9607;51.600;7.558;2022-11-20T11:40:21;6.10;99.90
18948;DHT22;9607;51.600;7.558;2022-11-20T11:42:55;6.30;99.90
18948;DHT22;9607;51.600;7.558;2022-11-20T11:45:24;6.40;99.90
18948;DHT22;9607;51.600;7.558;2022-11-20T11:47:54;6.50;99.90
18948;DHT22;9607;51.600;7.558;2022-11-20T11:50:25;6.60;99.90
18948;DHT22;9607;51.600;7.558;2022-11-20T11:53:05;6.50;99.90
18948;DHT22;9607;51.600;7.558;2022-11-20T11:55:44;6.60;99.90
18948;DHT22;9607;51.600;7.558;2022-11-20T11:58:29;6.70;99.90
18948;DHT22;9607;51.600;7.558;2022-11-20T12:01:04;6.70;99.90
18948;DHT22;9607;51.600;7.558;2022-11-20T12:03:38;6.80;99.90
18948;DHT22;9607;51.600;7.558;2022-11-20T12:06:10;6.90;99.90
18948;DHT22;9607;51.600;7.558;2022-11-20T12:08:44;7.00;99.90
18948;DHT22;9607;51.600;7.558;2022-11-20T12:11:20;7.10;99.90
18948;DHT22;9607;51.600;7.558;2022-11-20T12:13:54;7.20;99.90
18948;DHT22;9607;51.600;7.558;2022-11-20T12:16:24;7.30;99.90
18948;DHT22;9607;51.600;7.558;2022-11-20T12:18:54;7.40;99.90
18948;DHT22;9607;51.600;7.558;2022-11-20T12:21:33;7.50;99.90
18948;DHT22;9607;51.600;7.558;2022-11-20T12:24:27;7.50;99.90
18948;DHT22;9607;51.600;7.558;2022-11-20T12:27:11;7.60;99.90
18948;DHT22;9607;51.600;7.558;2022-11-20T12:29:53;7.90;99.90
18948;DHT22;9607;51.600;7.558;2022-11-20T12:32:44;8.10;99.90
18948;DHT22;9607;51.600;7.558;2022-11-20T12:35:31;8.30;99.90
18948;DHT22;9607;51.600;7.558;2022-11-20T12:38:26;8.50;99.90
18948;DHT22;9607;51.600;7.558;2022-11-20T12:40:59;8.50;99.90
18948;DHT22;9607;51.600;7.558;2022-11-20T12:43:31;8.70;99.90
18948;DHT22;9607;51.600;7.558;2022-11-20T12:46:27;8.70;99.90
18948;DHT22;9607;51.600;7.558;2022-11-20T12:51:58;8.80;99.90
18948;DHT22;9607;51.600;7.558;2022-11-20T12:57:09;9.00;99.90
18948;DHT22;9607;51.600;7.558;2022-11-20T12:59:56;9.10;99.90
18948;DHT22;9607;51.600;7.558;2022-11-20T13:02:29;9.00;99.90
18948;DHT22;9607;51.600;7.558;2022-11-20T13:05:19;9.00;99.90
18948;DHT22;9607;51.600;7.558;2022-11-20T13:07:52;8.80;99.90
18948;DHT22;9607;51.600;7.558;2022-11-20T13:10:27;8.70;99.90
18948;DHT22;9607;51.600;7.558;2022-11-20T13:13:13;8.60;99.90
18948;DHT22;9607;51.600;7.558;2022-11-20T13:15:48;8.40;99.90
18948;DHT22;9607;51.600;7.558;2022-11-20T13:18:18;8.30;99.90
18948;DHT22;9607;51.600;7.558;2022-11-20T13:20:47;8.10;99.90
18948;DHT22;9607;51.600;7.558;2022-11-20T13:23:23;8.00;99.90
18948;DHT22;9607;51.600;7.558;2022-11-20T13:26:06;7.80;99.90
18948;DHT22;9607;51.600;7.558;2022-11-20T13:28:42;7.60;99.90
18948;DHT22;9607;51.600;7.558;2022-11-20T13:31:30;7.40;99.90
18948;DHT22;9607;51.600;7.558;2022-11-20T13:33:58;7.20;99.90
18948;DHT22;9607;51.600;7.558;2022-11-20T13:36:28;7.10;99.90
18948;DHT22;9607;51.600;7.558;2022-11-20T13:38:56;6.90;99.90
18948;DHT22;9607;51.600;7.558;2022-11-20T13:41:24;6.80;99.90
18948;DHT22;9607;51.600;7.558;2022-11-20T13:44:05;6.70;99.90
18948;DHT22;9607;51.600;7.558;2022-11-20T13:46:39;6.60;99.90
18948;DHT22;9607;51.600;7.558;2022-11-20T13:49:09;6.50;99.90
18948;DHT22;9607;51.600;7.558;2022-11-20T13:51:54;6.40;99.90
18948;DHT22;9607;51.600;7.558;2022-11-20T13:57:57;6.20;99.90
18948;DHT22;9607;51.600;7.558;2022-11-20T14:00:28;6.20;99.90
18948;DHT22;9607;51.600;7.558;2022-11-20T14:03:08;6.10;99.90
18948;DHT22;9607;51.600;7.558;2022-11-20T14:05:49;6.10;99.90
18948;DHT22;9607;51.600;7.558;2022-11-20T14:08:24;6.00;99.90
18948;DHT22;9607;51.600;7.558;2022-11-20T14:11:05;5.90;99.90
18948;DHT22;9607;51.600;7.558;2022-11-20T14:13:38;5.80;99.90
18948;DHT22;9607;51.600;7.558;2022-11-20T14:16:09;5.80;99.90
18948;DHT22;9607;51.600;7.558;2022-11-20T14:18:36;5.70;99.90
18948;DHT22;9607;51.600;7.558;2022-11-20T14:21:03;5.60;99.90
18948;DHT22;9607;51.600;7.558;2022-11-20T14:23:33;5.60;99.90
18948;DHT22;9607;51.600;7.558;2022-11-20T14:26:04;5.50;99.90
18948;DHT22;9607;51.600;7.558;2022-11-20T14:28:31;5.50;99.90
18948;DHT22;9607;51.600;7.558;2022-11-20T14:30:59;5.40;99.90
18948;DHT22;9607;51.600;7.558;2022-11-20T14:33:32;5.40;99.90
18948;DHT22;9607;51.600;7.558;2022-11-20T14:35:59;5.40;99.90
18948;DHT22;9607;51.600;7.558;2022-11-20T14:38:27;5.40;99.90
18948;DHT22;9607;51.600;7.558;2022-11-20T14:41:06;5.30;99.90
18948;DHT22;9607;51.600;7.558;2022-11-20T14:43:33;5.30;99.90
18948;DHT22;9607;51.600;7.558;2022-11-20T14:46:03;5.30;99.90
18948;DHT22;9607;51.600;7.558;2022-11-20T14:48:38;5.20;99.90
18948;DHT22;9607;51.600;7.558;2022-11-20T14:51:05;5.20;99.90
18948;DHT22;9607;51.600;7.558;2022-11-20T14:53:37;5.20;99.90
18948;DHT22;9607;51.600;7.558;2022-11-20T14:56:08;5.20;99.90
18948;DHT22;9607;51.600;7.558;2022-11-20T14:58:35;5.20;99.90
18948;DHT22;9607;51.600;7.558;2022-11-20T15:01:04;5.10;99.90
18948;DHT22;9607;51.600;7.558;2022-11-20T15:03:34;5.10;99.90
18948;DHT22;9607;51.600;7.558;2022-11-20T15:06:03;5.00;99.90
18948;DHT22;9607;51.600;7.558;2022-11-20T15:08:30;5.00;99.90
18948;DHT22;9607;51.600;7.558;2022-11-20T15:10:58;5.00;99.90
18948;DHT22;9607;51.600;7.558;2022-11-20T15:13:27;4.90;99.90
18948;DHT22;9607;51.600;7.558;2022-11-20T15:15:56;4.90;99.90
18948;DHT22;9607;51.600;7.558;2022-11-20T15:18:25;4.90;99.90
18948;DHT22;9607;51.600;7.558;2022-11-20T15:20:58;4.90;99.90
18948;DHT22;9607;51.600;7.558;2022-11-20T15:23:26;4.80;99.90
18948;DHT22;9607;51.600;7.558;2022-11-20T15:25:54;4.80;99.90
18948;DHT22;9607;51.600;7.558;2022-11-20T15:28:28;4.80;99.90
18948;DHT22;9607;51.600;7.558;2022-11-20T15:30:56;4.80;99.90
18948;DHT22;9607;51.600;7.558;2022-11-20T15:33:23;4.80;99.90
18948;DHT22;9607;51.600;7.558;2022-11-20T15:35:50;4.70;99.90
18948;DHT22;9607;51.600;7.558;2022-11-20T15:38:23;4.70;99.90
18948;DHT22;9607;51.600;7.558;2022-11-20T15:40:50;4.70;99.90
18948;DHT22;9607;51.600;7.558;2022-11-20T15:43:16;4.70;99.90
18948;DHT22;9607;51.600;7.558;2022-11-20T15:45:45;4.70;99.90
18948;DHT22;9607;51.600;7.558;2022-11-20T15:48:21;4.60;99.90
18948;DHT22;9607;51.600;7.558;2022-11-20T15:50:54;4.60;99.90
18948;DHT22;9607;51.600;7.558;2022-11-20T15:53:30;4.60;99.90
18948;DHT22;9607;51.600;7.558;2022-11-20T15:55:57;4.60;99.90
18948;DHT22;9607;51.600;7.558;2022-11-20T15:58:26;4.50;99.90
18948;DHT22;9607;51.600;7.558;2022-11-20T16:00:53;4.50;99.90
18948;DHT22;9607;51.600;7.558;2022-11-20T16:03:20;4.60;99.90
18948;DHT22;9607;51.600;7.558;2022-11-20T16:05:46;4.60;99.90
18948;DHT22;9607;51.600;7.558;2022-11-20T16:08:13;4.60;99.90
18948;DHT22;9607;51.600;7.558;2022-11-20T16:10:42;4.60;99.90
18948;DHT22;9607;51.600;7.558;2022-11-20T16:13:13;4.60;99.90
18948;DHT22;9607;51.600;7.558;2022-11-20T16:15:59;4.60;99.90
18948;DHT22;9607;51.600;7.558;2022-11-20T16:18:27;4.50;99.90
18948;DHT22;9607;51.600;7.558;2022-11-20T16:20:54;4.50;99.90